Time;durP1;ratioP1;P1;durP2;ratioP2;P2;SDS_P1;SDS_P2;PMS_P1;PMS_P2;Temp;Humidity;BMP_temperature;BMP_pressure;BME280_temperature;BME280_humidity;BME280_pressure;Samples;Min_cycle;Max_cycle;Signal;HPM_P1;HPM_P2
2023/04/26 00:01:22;;;;;;;6.30;1.92;;;4.80;99.90;;;;;;5131881;27;20079;-71
2023/04/26 00:03:47;;;;;;;6.65;1.67;;;4.80;99.90;;;;;;5109735;28;20059;-71
2023/04/26 00:06:13;;;;;;;7.80;2.05;;;4.80;99.90;;;;;;5094317;28;20507;-71
2023/04/26 00:08:39;;;;;;;9.45;1.88;;;4.80;99.90;;;;;;5092948;28;20101;-71
2023/04/26 00:11:05;;;;;;;8.50;2.38;;;4.70;99.90;;;;;;5094171;28;20044;-71
2023/04/26 00:13:34;;;;;;;5.47;1.65;;;4.70;99.90;;;;;;5086300;28;20122;-71
2023/04/26 00:16:00;;;;;;;6.78;1.92;;;4.80;99.90;;;;;;5114655;28;20248;-71
2023/04/26 00:18:25;;;;;;;10.00;2.58;;;4.80;99.90;;;;;;5112337;28;20160;-71
2023/04/26 00:20:51;;;;;;;8.15;2.00;;;4.80;99.90;;;;;;5094009;28;20043;-71
2023/04/26 00:23:17;;;;;;;6.72;2.00;;;4.90;99.90;;;;;;5093502;28;20039;-71
2023/04/26 00:25:42;;;;;;;7.32;2.10;;;4.90;99.90;;;;;;5113759;28;20044;-71
2023/04/26 00:28:08;;;;;;;6.55;1.77;;;4.80;99.90;;;;;;5114341;28;20492;-71
2023/04/26 00:30:36;;;;;;;8.38;1.90;;;4.80;99.90;;;;;;5094093;28;20058;-71
2023/04/26 00:33:02;;;;;;;6.80;2.05;;;4.80;99.90;;;;;;5093772;28;20039;-71
2023/04/26 00:35:28;;;;;;;8.80;2.22;;;4.70;99.90;;;;;;5077237;28;20400;-71
2023/04/26 00:37:53;;;;;;;5.30;2.00;;;4.80;99.90;;;;;;5093706;28;20036;-71
2023/04/26 00:40:19;;;;;;;4.65;1.73;;;4.80;99.90;;;;;;5076461;28;20131;-71
2023/04/26 00:42:45;;;;;;;5.20;1.70;;;4.60;99.90;;;;;;5106326;28;20043;-71
2023/04/26 00:45:10;;;;;;;7.15;2.35;;;4.70;99.90;;;;;;5097130;28;20126;-71
2023/04/26 00:47:36;;;;;;;7.18;1.83;;;4.70;99.90;;;;;;5113915;28;20040;-71
2023/04/26 00:50:03;;;;;;;6.15;1.67;;;4.70;99.90;;;;;;5095869;28;20123;-71
2023/04/26 00:52:29;;;;;;;11.63;1.92;;;4.70;99.90;;;;;;5077771;28;20036;-71
2023/04/26 00:54:56;;;;;;;7.65;1.85;;;4.70;99.90;;;;;;5076396;28;20092;-72
2023/04/26 00:57:21;;;;;;;9.85;2.10;;;4.70;99.90;;;;;;5076513;28;20079;-71
2023/04/26 00:59:47;;;;;;;6.60;1.85;;;4.70;99.90;;;;;;5091327;28;20488;-71
2023/04/26 01:02:13;;;;;;;5.05;1.73;;;4.60;99.90;;;;;;5113591;28;20039;-71
2023/04/26 01:04:40;;;;;;;7.25;1.90;;;4.60;99.90;;;;;;5084589;28;20040;-71
2023/04/26 01:07:06;;;;;;;7.53;1.52;;;4.70;99.90;;;;;;5093405;28;20040;-71
2023/04/26 01:09:32;;;;;;;8.50;1.90;;;4.70;99.90;;;;;;5075815;28;20507;-71
2023/04/26 01:11:59;;;;;;;8.30;1.70;;;4.70;99.90;;;;;;5095202;28;20057;-71
2023/04/26 01:14:25;;;;;;;8.70;1.80;;;4.70;99.90;;;;;;5085994;28;20039;-71
2023/04/26 01:16:51;;;;;;;7.70;1.83;;;4.70;99.90;;;;;;5104601;28;20063;-71
2023/04/26 01:19:17;;;;;;;7.72;1.92;;;4.60;99.90;;;;;;5101482;28;20067;-71
2023/04/26 01:21:43;;;;;;;6.63;2.22;;;4.60;99.90;;;;;;5094010;28;20085;-71
2023/04/26 01:24:10;;;;;;;7.20;2.33;;;4.60;99.90;;;;;;5093102;28;20055;-71
2023/04/26 01:26:42;;;;;;;7.57;1.80;;;4.50;99.90;;;;;;5102971;28;20043;-71
2023/04/26 01:29:19;;;;;;;7.78;1.73;;;4.60;99.90;;;;;;5102696;28;20071;-71
2023/04/26 01:31:46;;;;;;;6.75;1.77;;;4.50;99.90;;;;;;5102610;28;20093;-71
2023/04/26 01:34:11;;;;;;;7.15;1.50;;;4.50;99.90;;;;;;5111957;28;20046;-71
2023/04/26 01:36:37;;;;;;;5.78;1.60;;;4.50;99.90;;;;;;5094974;28;20035;-71
2023/04/26 01:39:03;;;;;;;7.30;1.55;;;4.50;99.90;;;;;;5103792;28;20036;-71
2023/04/26 01:41:29;;;;;;;7.60;1.70;;;4.50;99.90;;;;;;5077157;28;20040;-71
2023/04/26 01:43:54;;;;;;;8.20;2.10;;;4.50;99.90;;;;;;5110515;28;20146;-71
2023/04/26 01:46:21;;;;;;;7.72;1.83;;;4.40;99.90;;;;;;5110564;28;20555;-71
2023/04/26 01:48:46;;;;;;;5.88;1.77;;;4.40;99.90;;;;;;5107294;28;20055;-71
2023/04/26 01:51:12;;;;;;;6.25;1.90;;;4.40;99.90;;;;;;5091730;28;20048;-71
2023/04/26 01:53:38;;;;;;;6.57;1.60;;;4.40;99.90;;;;;;5094726;28;20115;-71
2023/04/26 01:56:04;;;;;;;6.78;2.40;;;4.40;99.90;;;;;;5110361;28;20101;-71
2023/04/26 01:58:30;;;;;;;6.90;1.95;;;4.30;99.90;;;;;;5109270;28;20066;-71
2023/04/26 02:01:03;;;;;;;5.65;1.60;;;4.30;99.90;;;;;;5095280;28;20074;-71
2023/04/26 02:03:29;;;;;;;9.10;2.05;;;4.30;99.90;;;;;;5110220;28;20047;-71
2023/04/26 02:05:55;;;;;;;6.65;1.70;;;4.40;99.90;;;;;;5112575;28;20044;-71
2023/04/26 02:08:20;;;;;;;6.85;1.80;;;4.40;99.90;;;;;;5112417;28;20035;-71
2023/04/26 02:10:46;;;;;;;7.20;2.00;;;4.40;99.90;;;;;;5106559;28;20092;-71
2023/04/26 02:13:11;;;;;;;6.10;2.08;;;4.40;99.90;;;;;;5091742;28;20024;-71
2023/04/26 02:15:37;;;;;;;10.75;2.00;;;4.50;99.90;;;;;;5092090;28;20114;-71
2023/04/26 02:18:03;;;;;;;8.10;2.65;;;4.50;99.90;;;;;;5094470;28;20097;-71
2023/04/26 02:20:28;;;;;;;5.72;1.83;;;4.50;99.90;;;;;;5095412;28;20043;-71
2023/04/26 02:22:54;;;;;;;5.88;1.50;;;4.50;99.90;;;;;;5084395;28;20058;-71
2023/04/26 02:25:20;;;;;;;4.40;1.60;;;4.60;99.90;;;;;;5094033;28;20495;-71
2023/04/26 02:27:45;;;;;;;7.40;1.63;;;4.60;99.90;;;;;;5112337;28;20043;-71
2023/04/26 02:30:11;;;;;;;5.07;1.67;;;4.60;99.90;;;;;;5096282;28;20040;-71
2023/04/26 02:32:37;;;;;;;5.47;1.50;;;4.50;99.90;;;;;;5093365;28;20046;-71
2023/04/26 02:35:04;;;;;;;4.75;1.52;;;4.60;99.90;;;;;;5108371;28;20035;-71
2023/04/26 02:37:30;;;;;;;8.55;1.98;;;4.60;99.90;;;;;;5116481;28;20032;-71
2023/04/26 02:39:55;;;;;;;8.15;2.00;;;4.50;99.90;;;;;;5114399;28;20036;-71
2023/04/26 02:42:21;;;;;;;7.57;1.88;;;4.50;99.90;;;;;;5118264;27;20119;-71
2023/04/26 02:44:46;;;;;;;6.55;1.60;;;4.50;99.90;;;;;;5095786;28;20511;-71
2023/04/26 02:47:12;;;;;;;8.40;2.00;;;4.50;99.90;;;;;;5114132;28;20036;-71
2023/04/26 02:49:37;;;;;;;8.07;1.73;;;4.50;99.90;;;;;;5098221;28;20130;-71
2023/04/26 02:52:03;;;;;;;8.30;1.92;;;4.50;99.90;;;;;;5103415;28;20203;-71
2023/04/26 02:54:29;;;;;;;7.70;1.60;;;4.40;99.90;;;;;;5092028;28;20038;-71
2023/04/26 02:56:55;;;;;;;7.78;2.08;;;4.40;99.90;;;;;;5098987;28;20047;-71
2023/04/26 02:59:20;;;;;;;6.22;1.92;;;4.40;99.90;;;;;;5095090;28;20036;-71
2023/04/26 03:01:46;;;;;;;5.85;2.08;;;4.40;99.90;;;;;;5095825;28;20039;-71
2023/04/26 03:04:12;;;;;;;8.40;1.90;;;4.40;99.90;;;;;;5084129;28;20043;-71
2023/04/26 03:06:37;;;;;;;6.25;1.83;;;4.40;99.90;;;;;;5102189;28;20092;-71
2023/04/26 03:09:04;;;;;;;6.13;2.00;;;4.40;99.90;;;;;;5108854;28;20035;-71
2023/04/26 03:11:30;;;;;;;6.10;1.85;;;4.40;99.90;;;;;;5082007;28;20044;-71
2023/04/26 03:13:56;;;;;;;6.80;1.85;;;4.30;99.90;;;;;;5109948;28;20035;-71
2023/04/26 03:16:22;;;;;;;5.65;1.60;;;4.40;99.90;;;;;;5098646;28;20062;-71
2023/04/26 03:18:48;;;;;;;5.05;1.90;;;4.40;99.90;;;;;;5115654;28;20499;-71
2023/04/26 03:21:14;;;;;;;5.88;1.52;;;4.30;99.90;;;;;;5097635;28;20046;-71
2023/04/26 03:23:39;;;;;;;3.67;1.63;;;4.30;99.90;;;;;;5115356;28;20483;-71
2023/04/26 03:26:05;;;;;;;6.13;2.60;;;4.30;99.90;;;;;;5116016;27;20044;-71
2023/04/26 03:28:30;;;;;;;5.78;1.95;;;4.20;99.90;;;;;;5115436;28;20040;-71
2023/04/26 03:30:56;;;;;;;7.10;2.20;;;4.20;99.90;;;;;;5115478;28;20046;-71
2023/04/26 03:33:21;;;;;;;7.53;1.90;;;4.20;99.90;;;;;;5097456;28;20036;-72
2023/04/26 03:35:47;;;;;;;6.80;2.80;;;4.30;99.90;;;;;;5109463;28;20043;-71
2023/04/26 03:38:13;;;;;;;4.03;1.65;;;4.20;99.90;;;;;;5093327;28;20070;-71
2023/04/26 03:40:38;;;;;;;8.15;1.92;;;4.30;99.90;;;;;;5112372;28;20032;-71
2023/04/26 03:43:04;;;;;;;5.60;2.08;;;4.30;99.90;;;;;;5112027;28;20130;-71
2023/04/26 03:45:29;;;;;;;7.60;1.98;;;4.30;99.90;;;;;;5106016;28;20036;-71
2023/04/26 03:47:55;;;;;;;8.18;1.95;;;4.30;99.90;;;;;;5098439;28;20028;-71
2023/04/26 03:50:21;;;;;;;5.28;1.50;;;4.40;99.90;;;;;;5109694;28;20032;-71
2023/04/26 03:52:46;;;;;;;7.82;1.98;;;4.40;99.90;;;;;;5131147;27;20035;-71
2023/04/26 03:55:12;;;;;;;5.57;1.70;;;4.30;99.90;;;;;;5096293;28;20051;-71
2023/04/26 03:57:38;;;;;;;7.47;2.03;;;4.30;99.90;;;;;;5087775;28;20081;-71
2023/04/26 04:00:12;;;;;;;5.03;1.83;;;4.40;99.90;;;;;;5082278;28;20047;-71
2023/04/26 04:02:38;;;;;;;6.68;2.08;;;4.40;99.90;;;;;;5087007;28;20077;-71
2023/04/26 04:05:04;;;;;;;5.00;1.75;;;4.40;99.90;;;;;;5100645;28;20040;-71
2023/04/26 04:07:31;;;;;;;7.10;1.80;;;4.40;99.90;;;;;;5090442;28;20050;-71
2023/04/26 04:09:58;;;;;;;6.25;1.58;;;4.40;99.90;;;;;;5124880;27;20044;-71
2023/04/26 04:12:23;;;;;;;5.40;1.90;;;4.40;99.90;;;;;;5083804;28;20042;-71
2023/04/26 04:14:49;;;;;;;7.63;2.17;;;4.40;99.90;;;;;;5093092;28;20122;-71
2023/04/26 04:17:15;;;;;;;6.10;2.10;;;4.40;99.90;;;;;;5101382;27;20043;-71
2023/04/26 04:19:41;;;;;;;5.55;1.60;;;4.40;99.90;;;;;;5107565;28;20035;-71
2023/04/26 04:22:06;;;;;;;6.60;1.70;;;4.40;99.90;;;;;;5127235;27;20404;-71
2023/04/26 04:24:32;;;;;;;6.95;2.00;;;4.40;99.90;;;;;;5111841;28;20465;-71
2023/04/26 04:26:59;;;;;;;5.07;1.83;;;4.40;99.90;;;;;;5083550;28;20031;-71
2023/04/26 04:29:25;;;;;;;8.70;1.90;;;4.30;99.90;;;;;;5079644;28;20042;-71
2023/04/26 04:31:51;;;;;;;9.13;2.10;;;4.20;99.90;;;;;;5085036;28;20032;-71
2023/04/26 04:34:17;;;;;;;6.00;1.65;;;4.10;99.90;;;;;;5114753;27;20063;-71
2023/04/26 04:36:42;;;;;;;4.72;1.75;;;4.10;99.90;;;;;;5082091;28;20028;-71
2023/04/26 04:39:12;;;;;;;8.68;2.05;;;4.10;99.90;;;;;;5093807;28;20518;-71
2023/04/26 04:41:38;;;;;;;6.13;2.00;;;4.20;99.90;;;;;;5093954;28;20399;-71
2023/04/26 04:44:04;;;;;;;4.85;1.90;;;4.20;99.90;;;;;;5093620;28;20047;-72
2023/04/26 04:46:30;;;;;;;4.72;1.90;;;4.20;99.90;;;;;;5093560;28;20499;-71
2023/04/26 04:48:55;;;;;;;5.63;2.03;;;4.20;99.90;;;;;;5108442;28;20089;-71
2023/04/26 04:51:21;;;;;;;7.05;1.83;;;4.20;99.90;;;;;;5114391;28;20046;-71
2023/04/26 04:53:46;;;;;;;7.32;1.85;;;4.20;99.90;;;;;;5096775;28;20088;-71
2023/04/26 04:56:13;;;;;;;6.57;2.22;;;4.20;99.90;;;;;;5113067;28;20047;-71
2023/04/26 04:58:38;;;;;;;6.97;1.92;;;4.20;99.90;;;;;;5096746;28;20126;-71
2023/04/26 05:01:04;;;;;;;6.63;2.13;;;4.20;99.90;;;;;;5113927;28;20465;-71
2023/04/26 05:03:32;;;;;;;5.57;2.00;;;4.30;99.90;;;;;;5111431;28;20527;-71
2023/04/26 05:05:59;;;;;;;9.05;2.50;;;4.40;99.90;;;;;;5113494;28;20036;-71
2023/04/26 05:08:24;;;;;;;8.95;1.90;;;4.50;99.90;;;;;;5114303;28;20043;-71
2023/04/26 05:10:50;;;;;;;7.25;1.98;;;4.60;99.90;;;;;;5096428;28;20043;-71
2023/04/26 05:13:16;;;;;;;8.38;2.20;;;4.60;99.90;;;;;;5096500;28;20043;-70
2023/04/26 05:15:41;;;;;;;5.97;2.15;;;4.60;99.90;;;;;;5130693;27;20027;-70
2023/04/26 05:18:07;;;;;;;9.05;1.80;;;4.70;99.90;;;;;;5113221;28;20115;-70
2023/04/26 05:20:33;;;;;;;8.65;2.10;;;4.80;99.90;;;;;;5096330;28;20199;-70
2023/04/26 05:22:58;;;;;;;4.90;1.80;;;4.80;99.90;;;;;;5096241;28;20039;-71
2023/04/26 05:25:24;;;;;;;6.68;2.10;;;4.90;99.90;;;;;;5112135;27;20188;-71
2023/04/26 05:27:50;;;;;;;5.50;2.17;;;4.80;99.90;;;;;;5113164;28;20043;-71
2023/04/26 05:30:15;;;;;;;5.70;2.10;;;4.80;99.90;;;;;;5109692;28;20028;-71
2023/04/26 05:32:41;;;;;;;7.25;2.25;;;4.80;99.90;;;;;;5104730;28;20081;-71
2023/04/26 05:35:07;;;;;;;11.27;3.38;;;4.80;99.90;;;;;;5117530;27;20500;-71
2023/04/26 05:37:34;;;;;;;6.45;1.92;;;4.70;99.90;;;;;;5089658;28;20045;-71
2023/04/26 05:40:00;;;;;;;5.80;2.05;;;4.70;99.90;;;;;;5108667;28;20035;-71
2023/04/26 05:42:25;;;;;;;5.47;2.10;;;4.70;99.90;;;;;;5104290;27;20047;-71
2023/04/26 05:44:58;;;;;;;6.80;2.00;;;4.80;99.90;;;;;;5092505;28;20476;-71
2023/04/26 05:47:25;;;;;;;8.10;2.20;;;4.80;99.90;;;;;;5117201;27;20135;-71
2023/04/26 05:49:50;;;;;;;6.25;2.17;;;4.90;99.90;;;;;;5111881;28;20043;-71
2023/04/26 05:52:16;;;;;;;4.20;2.03;;;5.00;99.90;;;;;;5104550;28;20036;-71
2023/04/26 05:54:41;;;;;;;7.47;2.45;;;5.10;99.90;;;;;;5100798;28;20027;-71
2023/04/26 05:57:07;;;;;;;5.38;2.00;;;5.20;99.90;;;;;;5093246;28;20105;-71
2023/04/26 05:59:35;;;;;;;7.13;2.08;;;5.40;99.90;;;;;;5108824;28;20399;-71
2023/04/26 06:02:01;;;;;;;6.60;2.00;;;5.40;99.90;;;;;;5083939;28;20437;-71
2023/04/26 06:04:26;;;;;;;7.45;2.17;;;5.40;99.90;;;;;;5079784;28;20037;-71
2023/04/26 06:06:52;;;;;;;7.95;2.53;;;5.40;99.90;;;;;;5076764;28;20416;-71
2023/04/26 06:09:18;;;;;;;6.65;2.15;;;5.50;99.90;;;;;;5102646;28;20035;-71
2023/04/26 06:11:43;;;;;;;6.38;2.05;;;5.60;99.90;;;;;;5095840;28;20051;-71
2023/04/26 06:14:09;;;;;;;9.82;2.13;;;5.70;99.90;;;;;;5075140;28;20035;-71
2023/04/26 06:16:34;;;;;;;4.57;1.80;;;5.80;99.90;;;;;;5111845;28;20492;-71
2023/04/26 06:19:00;;;;;;;4.68;2.17;;;5.90;99.90;;;;;;5095725;28;20058;-71
2023/04/26 06:21:26;;;;;;;6.00;1.88;;;5.80;99.90;;;;;;5112420;28;20040;-71
2023/04/26 06:23:51;;;;;;;5.57;1.80;;;5.80;99.90;;;;;;5112374;28;20039;-71
2023/04/26 06:26:17;;;;;;;7.57;2.03;;;5.90;99.90;;;;;;5110363;28;20065;-71
2023/04/26 06:28:42;;;;;;;6.20;1.90;;;5.80;99.90;;;;;;5112333;28;20077;-71
2023/04/26 06:31:08;;;;;;;8.85;2.17;;;5.80;99.90;;;;;;5095230;28;20032;-71
2023/04/26 06:33:34;;;;;;;5.78;2.00;;;5.80;99.90;;;;;;5112298;28;20047;-71
2023/04/26 06:35:59;;;;;;;5.15;1.80;;;5.80;99.90;;;;;;5103382;28;20040;-71
2023/04/26 06:38:25;;;;;;;5.25;1.85;;;5.90;99.90;;;;;;5093520;28;20058;-71
2023/04/26 06:40:50;;;;;;;4.20;2.08;;;5.90;99.90;;;;;;5082272;28;20385;-71
2023/04/26 06:43:16;;;;;;;5.65;1.90;;;6.00;99.90;;;;;;5091629;28;20381;-71
2023/04/26 06:45:42;;;;;;;7.07;2.05;;;6.10;99.90;;;;;;5085972;28;20046;-71
2023/04/26 06:48:08;;;;;;;5.30;1.65;;;6.10;99.90;;;;;;5101735;28;20047;-82
2023/04/26 06:50:37;;;;;;;4.03;1.85;;;6.20;99.90;;;;;;5094058;28;20044;-71
2023/04/26 06:53:03;;;;;;;5.68;2.00;;;6.30;99.90;;;;;;5079667;28;20047;-71
2023/04/26 06:55:28;;;;;;;5.93;1.85;;;6.40;99.90;;;;;;5090413;28;20052;-71
2023/04/26 06:57:55;;;;;;;4.95;1.80;;;6.50;99.90;;;;;;5086681;28;20036;-71
2023/04/26 07:00:21;;;;;;;6.70;1.83;;;6.60;99.90;;;;;;5095220;28;20058;-71
2023/04/26 07:02:47;;;;;;;9.13;2.13;;;6.50;99.90;;;;;;5112306;28;20035;-70
2023/04/26 07:05:14;;;;;;;8.77;2.20;;;6.60;99.90;;;;;;5111917;28;20040;-71
2023/04/26 07:07:39;;;;;;;6.22;2.15;;;6.60;99.90;;;;;;5094971;28;20531;-71
2023/04/26 07:10:07;;;;;;;6.80;1.98;;;6.60;99.90;;;;;;5112069;28;20055;-71
2023/04/26 07:12:32;;;;;;;7.50;2.60;;;6.80;99.90;;;;;;5093947;28;20397;-71
2023/04/26 07:15:00;;;;;;;6.78;2.47;;;6.80;99.90;;;;;;5111898;28;20047;-70
2023/04/26 07:17:26;;;;;;;7.25;2.30;;;6.90;99.90;;;;;;5094752;28;20035;-70
2023/04/26 07:19:51;;;;;;;6.22;1.92;;;7.00;99.90;;;;;;5115476;28;20393;-70
2023/04/26 07:22:17;;;;;;;7.45;1.88;;;7.20;99.90;;;;;;5115133;28;20058;-70
2023/04/26 07:24:42;;;;;;;8.65;2.47;;;7.20;99.90;;;;;;5095143;28;20488;-70
2023/04/26 07:27:08;;;;;;;9.45;2.55;;;7.30;99.90;;;;;;5095301;28;20032;-70
2023/04/26 07:29:34;;;;;;;5.47;1.80;;;7.20;99.90;;;;;;5095249;28;20408;-70
2023/04/26 07:32:00;;;;;;;9.65;3.10;;;7.30;99.90;;;;;;5095094;28;20036;-71
2023/04/26 07:34:25;;;;;;;5.53;2.00;;;7.30;99.90;;;;;;5078366;28;20443;-71
2023/04/26 07:36:51;;;;;;;6.55;2.30;;;7.30;99.90;;;;;;5078298;28;20427;-71
2023/04/26 07:39:17;;;;;;;6.50;2.15;;;7.50;99.90;;;;;;5106933;28;20491;-71
2023/04/26 07:41:42;;;;;;;5.75;2.05;;;7.60;99.90;;;;;;5115334;28;20039;-71
2023/04/26 07:44:09;;;;;;;6.82;2.50;;;7.60;99.90;;;;;;5098187;28;20461;-71
2023/04/26 07:46:34;;;;;;;7.38;2.45;;;7.70;99.90;;;;;;5098102;28;20043;-71
2023/04/26 07:49:00;;;;;;;6.75;2.58;;;7.90;99.90;;;;;;5115339;28;20081;-71
2023/04/26 07:51:26;;;;;;;7.13;2.42;;;7.90;99.90;;;;;;5097948;28;20040;-71
2023/04/26 07:53:52;;;;;;;9.35;2.40;;;8.00;99.90;;;;;;5098056;28;20089;-71
2023/04/26 07:56:18;;;;;;;7.20;2.35;;;8.10;99.90;;;;;;5114751;28;20083;-71
2023/04/26 07:58:43;;;;;;;8.02;2.45;;;8.20;99.90;;;;;;5108072;28;20052;-71
2023/04/26 08:01:10;;;;;;;8.05;2.20;;;8.30;99.90;;;;;;5094521;28;20036;-71
2023/04/26 08:03:36;;;;;;;6.57;2.17;;;8.30;99.90;;;;;;5094715;28;20035;-71
2023/04/26 08:06:02;;;;;;;7.22;1.90;;;8.30;99.90;;;;;;5077665;28;20561;-71
2023/04/26 08:08:28;;;;;;;7.97;2.63;;;8.20;99.90;;;;;;5094246;28;20040;-71
2023/04/26 08:10:54;;;;;;;7.30;2.15;;;8.30;99.90;;;;;;5077376;28;20040;-71
2023/04/26 08:13:20;;;;;;;9.82;3.03;;;8.20;99.90;;;;;;5094257;28;20047;-71
2023/04/26 08:15:46;;;;;;;6.80;2.05;;;8.30;99.90;;;;;;5094265;28;20044;-71
2023/04/26 08:18:12;;;;;;;7.28;2.15;;;8.50;99.90;;;;;;5094139;28;20035;-71
2023/04/26 08:20:38;;;;;;;5.90;2.00;;;8.50;99.90;;;;;;5094091;28;20040;-71
2023/04/26 08:23:04;;;;;;;7.47;2.00;;;8.60;99.90;;;;;;5093577;28;20055;-71
2023/04/26 08:25:33;;;;;;;6.93;1.88;;;8.70;99.90;;;;;;5077247;28;20135;-71
2023/04/26 08:27:59;;;;;;;7.38;2.40;;;8.80;99.90;;;;;;5094029;28;20044;-71
2023/04/26 08:30:24;;;;;;;6.28;2.10;;;8.80;99.90;;;;;;5093130;28;20067;-71
2023/04/26 08:32:50;;;;;;;9.77;2.45;;;9.00;99.90;;;;;;5077156;28;20040;-71
2023/04/26 08:35:16;;;;;;;7.63;2.00;;;9.10;99.90;;;;;;5093921;28;20486;-71
2023/04/26 08:37:41;;;;;;;8.65;2.45;;;9.20;99.90;;;;;;5076904;28;20123;-71
2023/04/26 08:40:11;;;;;;;7.82;2.00;;;9.30;99.90;;;;;;5093785;28;20113;-71
2023/04/26 08:42:41;;;;;;;8.23;2.00;;;9.40;99.90;;;;;;5093876;28;20052;-71
2023/04/26 08:45:07;;;;;;;7.13;1.95;;;9.50;99.90;;;;;;5093706;28;20044;-71
2023/04/26 08:47:46;;;;;;;6.82;1.90;;;9.40;99.90;;;;;;5095651;28;20081;-71
2023/04/26 08:50:13;;;;;;;8.18;1.92;;;9.40;99.90;;;;;;5113947;28;20040;-71
2023/04/26 08:52:40;;;;;;;7.43;2.10;;;9.20;99.90;;;;;;5096843;28;20035;-71
2023/04/26 08:55:11;;;;;;;8.07;1.90;;;9.30;99.90;;;;;;5113690;28;20067;-71
2023/04/26 08:57:39;;;;;;;7.22;1.90;;;9.30;99.90;;;;;;5096784;28;20044;-71
2023/04/26 09:00:09;;;;;;;6.85;2.10;;;9.30;99.90;;;;;;5131237;27;20048;-71
2023/04/26 09:02:35;;;;;;;8.80;2.08;;;9.20;99.90;;;;;;5096648;28;20047;-71
2023/04/26 09:05:02;;;;;;;8.02;1.95;;;9.30;99.90;;;;;;5096708;28;20052;-71
2023/04/26 09:07:37;;;;;;;7.00;2.00;;;9.40;99.90;;;;;;5096775;28;20400;-71
2023/04/26 09:10:05;;;;;;;8.70;1.95;;;9.50;99.90;;;;;;5112279;28;20042;-71
2023/04/26 09:12:30;;;;;;;8.10;2.10;;;9.60;99.90;;;;;;5096818;28;20036;-71
2023/04/26 09:14:56;;;;;;;8.15;2.42;;;9.60;99.90;;;;;;5113805;28;20127;-71
2023/04/26 09:17:29;;;;;;;10.68;2.00;;;9.50;99.90;;;;;;5113450;28;20066;-71
2023/04/26 09:19:56;;;;;;;6.70;1.83;;;9.40;99.90;;;;;;5113343;28;20047;-71
2023/04/26 09:22:34;;;;;;;4.85;2.00;;;9.30;99.90;;;;;;5096397;28;20092;-71
2023/04/26 09:25:03;;;;;;;6.00;2.10;;;9.10;99.90;;;;;;5096398;28;20043;-71
2023/04/26 09:27:37;;;;;;;6.95;2.25;;;8.80;99.90;;;;;;5113190;28;20046;-71
2023/04/26 09:30:09;;;;;;;6.85;2.00;;;8.60;99.90;;;;;;5096118;28;20036;-71
2023/04/26 09:32:44;;;;;;;9.05;2.10;;;8.30;99.90;;;;;;5113039;28;20035;-71
2023/04/26 09:35:31;;;;;;;6.93;2.20;;;7.90;99.90;;;;;;5094859;28;20048;-71
2023/04/26 09:38:08;;;;;;;7.75;2.10;;;7.90;99.90;;;;;;5096005;28;20172;-71
2023/04/26 09:40:37;;;;;;;7.40;2.15;;;7.80;99.90;;;;;;5112999;28;20116;-71
2023/04/26 09:43:06;;;;;;;6.10;2.17;;;7.80;99.90;;;;;;5096319;28;20062;-71
2023/04/26 09:45:41;;;;;;;8.82;2.28;;;7.90;99.90;;;;;;5113148;28;20039;-71
2023/04/26 09:48:21;;;;;;;5.72;2.00;;;7.80;99.90;;;;;;5095924;28;20054;-71
2023/04/26 09:50:52;;;;;;;6.45;2.10;;;7.90;99.90;;;;;;5095983;28;20039;-71
2023/04/26 09:53:40;;;;;;;7.30;2.13;;;8.10;99.90;;;;;;5113041;28;20052;-71
2023/04/26 09:56:18;;;;;;;5.72;1.98;;;8.10;99.90;;;;;;5095749;28;20036;-70
2023/04/26 09:58:47;;;;;;;6.85;2.08;;;8.20;99.90;;;;;;5098761;28;20043;-75
2023/04/26 10:01:17;;;;;;;10.27;2.47;;;8.20;99.90;;;;;;5108381;28;20043;-74
2023/04/26 10:03:44;;;;;;;6.13;2.00;;;8.30;99.90;;;;;;5105974;28;20037;-70
2023/04/26 10:06:11;;;;;;;6.28;2.10;;;8.30;99.90;;;;;;5104472;28;20074;-70
2023/04/26 10:08:37;;;;;;;6.60;1.88;;;8.40;99.90;;;;;;5095478;28;20039;-70
2023/04/26 10:11:04;;;;;;;5.78;2.30;;;8.50;99.90;;;;;;5108157;28;20038;-71
2023/04/26 10:13:33;;;;;;;6.85;2.00;;;8.40;99.90;;;;;;5078065;28;20036;-70
2023/04/26 10:16:00;;;;;;;6.60;2.10;;;8.50;99.90;;;;;;5091482;28;20047;-70
2023/04/26 10:18:26;;;;;;;9.48;2.95;;;8.60;99.90;;;;;;5079509;28;20048;-70
2023/04/26 10:20:56;;;;;;;9.55;2.20;;;8.60;99.90;;;;;;5108669;28;20044;-70
2023/04/26 10:23:26;;;;;;;7.25;2.17;;;8.60;99.90;;;;;;5095004;28;20092;-70
2023/04/26 10:25:53;;;;;;;8.55;2.00;;;8.60;99.90;;;;;;5094004;28;20114;-70
2023/04/26 10:28:45;;;;;;;9.70;3.28;;;8.50;99.90;;;;;;5108473;28;20119;-70
2023/04/26 10:31:11;;;;;;;8.38;2.40;;;8.50;99.90;;;;;;5105625;28;20096;-70
2023/04/26 10:33:37;;;;;;;7.72;2.47;;;8.60;99.90;;;;;;5098049;28;20501;-71
2023/04/26 10:36:11;;;;;;;9.55;2.67;;;8.60;99.90;;;;;;5076711;28;20031;-70
2023/04/26 10:39:01;;;;;;;11.30;2.78;;;8.60;99.90;;;;;;5088907;28;20063;-70
2023/04/26 10:41:31;;;;;;;5.65;2.22;;;8.50;99.90;;;;;;5111568;28;20059;-70
2023/04/26 10:43:59;;;;;;;9.38;2.50;;;8.70;99.90;;;;;;5106714;28;20036;-70
2023/04/26 10:46:37;;;;;;;8.98;2.97;;;8.70;99.90;;;;;;5081589;28;20066;-70
2023/04/26 10:49:16;;;;;;;7.90;2.20;;;8.80;99.90;;;;;;5087190;28;20066;-70
2023/04/26 10:52:22;;;;;;;8.75;2.33;;;8.90;99.90;;;;;;5089802;28;20392;-71
2023/04/26 10:54:55;;;;;;;8.25;2.35;;;9.10;99.90;;;;;;4993194;28;20148;-71
2023/04/26 10:57:22;;;;;;;8.50;2.30;;;9.10;99.90;;;;;;4993027;28;20061;-71
2023/04/26 11:00:09;;;;;;;7.95;2.22;;;9.30;99.90;;;;;;5046547;28;20100;-71
2023/04/26 11:02:54;;;;;;;7.25;2.30;;;9.60;99.90;;;;;;5101130;27;20054;-71
2023/04/26 11:05:36;;;;;;;5.70;2.10;;;9.60;99.90;;;;;;5111387;27;20051;-71
2023/04/26 11:08:20;;;;;;;8.07;2.30;;;9.70;99.90;;;;;;5092816;28;20511;-71
2023/04/26 11:10:58;;;;;;;7.25;1.98;;;9.80;99.90;;;;;;5083042;28;20036;-71
2023/04/26 11:13:23;;;;;;;7.35;2.30;;;9.80;99.90;;;;;;5110358;28;20051;-71
2023/04/26 11:16:15;;;;;;;6.97;2.28;;;9.90;99.90;;;;;;5109352;28;20028;-71
2023/04/26 11:18:45;;;;;;;8.98;2.35;;;9.90;99.90;;;;;;5095152;28;20028;-71
2023/04/26 11:21:16;;;;;;;5.18;1.85;;;9.90;99.90;;;;;;5108534;28;20491;-71
2023/04/26 11:23:42;;;;;;;5.88;2.13;;;9.80;99.90;;;;;;5097987;28;20043;-71
2023/04/26 11:26:08;;;;;;;9.80;2.28;;;9.80;99.90;;;;;;5094843;28;20118;-71
2023/04/26 11:28:38;;;;;;;4.80;1.70;;;9.80;99.90;;;;;;5092086;28;20043;-75
2023/04/26 11:31:05;;;;;;;7.00;2.10;;;9.90;99.90;;;;;;5097152;28;20035;-74
2023/04/26 11:33:33;;;;;;;7.57;2.15;;;9.90;99.90;;;;;;5113704;28;20475;-74
2023/04/26 11:35:58;;;;;;;6.80;1.83;;;9.80;99.90;;;;;;5130248;27;20036;-74
2023/04/26 11:38:25;;;;;;;7.35;2.10;;;9.80;99.90;;;;;;5103086;28;20035;-75
2023/04/26 11:40:59;;;;;;;7.28;1.63;;;9.90;99.90;;;;;;5109972;28;20074;-74
2023/04/26 11:43:38;;;;;;;10.07;2.28;;;9.80;99.90;;;;;;5088048;28;20039;-73
2023/04/26 11:46:08;;;;;;;5.90;1.60;;;9.70;99.90;;;;;;5110325;28;20039;-73
2023/04/26 11:48:35;;;;;;;6.45;1.80;;;9.50;99.90;;;;;;5093613;28;20051;-69
2023/04/26 11:51:03;;;;;;;6.88;1.70;;;9.30;99.90;;;;;;5095548;28;20035;-69
2023/04/26 11:53:40;;;;;;;6.20;1.80;;;9.00;99.90;;;;;;5099794;28;20047;-69
2023/04/26 11:56:18;;;;;;;6.72;1.75;;;8.90;99.90;;;;;;5103641;27;20054;-69
2023/04/26 11:58:45;;;;;;;6.70;1.58;;;8.90;99.90;;;;;;5118783;27;20115;-69
2023/04/26 12:01:11;;;;;;;5.65;1.90;;;8.90;99.90;;;;;;5100809;27;20077;-69
2023/04/26 12:03:36;;;;;;;8.00;2.00;;;8.80;99.90;;;;;;5116192;27;20043;-70
2023/04/26 12:06:03;;;;;;;5.93;1.92;;;9.00;99.90;;;;;;5085333;28;20119;-70
2023/04/26 12:08:30;;;;;;;5.40;2.10;;;9.00;99.90;;;;;;5096386;28;20089;-70
2023/04/26 12:11:01;;;;;;;6.03;2.08;;;9.00;99.90;;;;;;5090247;28;20105;-70
2023/04/26 12:13:28;;;;;;;7.45;1.83;;;9.20;99.90;;;;;;5113468;28;20063;-70
2023/04/26 12:15:53;;;;;;;6.05;1.90;;;9.20;99.90;;;;;;5080301;28;20093;-70
2023/04/26 12:18:19;;;;;;;8.10;1.90;;;9.20;99.90;;;;;;5099015;27;20048;-70
2023/04/26 12:20:45;;;;;;;5.68;2.20;;;9.20;99.90;;;;;;5084061;28;20040;-70
2023/04/26 12:23:15;;;;;;;6.95;2.65;;;9.20;99.90;;;;;;5097059;28;20086;-70
2023/04/26 12:25:51;;;;;;;6.05;2.42;;;9.30;99.90;;;;;;5086889;28;20032;-71
2023/04/26 12:28:17;;;;;;;7.65;2.10;;;9.40;99.90;;;;;;5100874;28;20044;-71
2023/04/26 12:30:42;;;;;;;7.15;2.67;;;9.30;99.90;;;;;;5083908;28;20464;-71
2023/04/26 12:33:08;;;;;;;10.50;2.42;;;9.30;99.90;;;;;;5096920;28;20107;-71
2023/04/26 12:35:34;;;;;;;6.88;2.03;;;9.40;99.90;;;;;;5113541;28;20079;-71
2023/04/26 12:38:00;;;;;;;6.25;2.05;;;9.30;99.90;;;;;;5130777;27;20042;-69
2023/04/26 12:40:29;;;;;;;7.47;1.85;;;9.30;99.90;;;;;;5082077;28;20035;-69
2023/04/26 12:42:56;;;;;;;5.63;1.90;;;9.30;99.90;;;;;;5094121;28;20038;-69
2023/04/26 12:45:23;;;;;;;8.05;2.20;;;9.20;99.90;;;;;;5104493;27;20365;-69
2023/04/26 12:47:49;;;;;;;6.05;1.88;;;9.30;99.90;;;;;;5097198;28;20040;-70
2023/04/26 12:50:15;;;;;;;7.43;1.90;;;9.40;99.90;;;;;;5092076;28;20040;-70
2023/04/26 12:52:42;;;;;;;5.55;1.92;;;9.40;99.90;;;;;;5109131;28;20093;-70
2023/04/26 12:55:09;;;;;;;8.63;2.40;;;9.40;99.90;;;;;;5075896;28;20044;-70
2023/04/26 12:57:36;;;;;;;7.88;2.45;;;9.40;99.90;;;;;;5093568;28;20437;-71
2023/04/26 13:00:03;;;;;;;11.23;2.97;;;9.30;99.90;;;;;;5093049;28;20135;-70